Time;durP1;ratioP1;P1;durP2;ratioP2;P2;SDS_P1;SDS_P2;PMS_P1;PMS_P2;Temp;Humidity;BMP_temperature;BMP_pressure;BME280_temperature;BME280_humidity;BME280_pressure;Samples;Min_cycle;Max_cycle;Signal;HPM_P1;HPM_P2
2024/01/02 00:00:48;;;;;;;2.78;1.27;;;;;;;7.23;63.82;97382.97;4984766;28;20210;-74
2024/01/02 00:03:14;;;;;;;1.90;0.90;;;;;;;7.18;63.89;97370.09;4990389;28;20234;-75
2024/01/02 00:05:41;;;;;;;3.97;1.17;;;;;;;7.28;63.97;97364.38;4991531;28;20207;-75
2024/01/02 00:08:07;;;;;;;5.05;1.52;;;;;;;7.30;63.77;97367.72;4992884;28;20205;-74
2024/01/02 00:10:34;;;;;;;3.03;1.33;;;;;;;7.26;63.77;97361.88;4992175;28;20673;-75
2024/01/02 00:13:01;;;;;;;4.53;1.40;;;;;;;7.29;63.91;97356.13;4992167;28;20238;-75
2024/01/02 00:15:28;;;;;;;2.95;1.30;;;;;;;7.27;63.91;97352.78;4990686;28;20213;-75
2024/01/02 00:17:55;;;;;;;4.05;1.15;;;;;;;7.26;64.26;97342.22;4992470;28;20192;-75
2024/01/02 00:20:21;;;;;;;2.65;1.02;;;;;;;7.24;64.42;97342.41;4992620;28;20213;-75
2024/01/02 00:22:48;;;;;;;2.92;1.05;;;;;;;7.25;64.26;97335.16;4984983;28;20688;-76
2024/01/02 00:25:15;;;;;;;4.70;1.30;;;;;;;7.20;64.34;97330.38;4989661;28;20207;-74
2024/01/02 00:27:41;;;;;;;2.97;1.50;;;;;;;7.17;64.58;97330.78;4991966;28;20564;-74
2024/01/02 00:30:09;;;;;;;2.42;0.82;;;;;;;7.16;64.62;97334.50;4991866;28;20191;-75
2024/01/02 00:32:37;;;;;;;3.60;1.35;;;;;;;7.10;64.86;97324.53;4990824;28;20192;-75
2024/01/02 00:35:04;;;;;;;3.40;1.20;;;;;;;7.16;64.66;97317.50;4990330;28;20207;-75
2024/01/02 00:37:30;;;;;;;1.83;0.90;;;;;;;7.12;64.74;97322.50;4992149;28;20213;-75
2024/01/02 00:39:57;;;;;;;2.42;0.95;;;;;;;7.08;64.99;97319.38;4991023;28;20536;-75
2024/01/02 00:42:24;;;;;;;2.25;1.20;;;;;;;7.06;65.04;97307.97;4992039;28;20558;-75
2024/01/02 00:44:50;;;;;;;2.90;1.00;;;;;;;7.16;64.99;97312.13;4991105;28;20203;-74
2024/01/02 00:47:20;;;;;;;1.42;0.90;;;;;;;7.17;64.82;97303.88;4990338;28;20213;-74
2024/01/02 00:49:49;;;;;;;2.03;1.10;;;;;;;7.13;64.90;97291.88;5007036;28;20203;-75
2024/01/02 00:52:15;;;;;;;1.38;1.13;;;;;;;7.19;65.12;97284.84;4990958;28;20295;-75
2024/01/02 00:54:42;;;;;;;1.15;0.80;;;;;;;7.21;64.89;97278.22;4991289;28;20203;-75
2024/01/02 00:57:08;;;;;;;2.67;1.00;;;;;;;7.21;64.76;97282.78;4991117;28;20199;-74
2024/01/02 00:59:35;;;;;;;2.38;1.10;;;;;;;7.22;64.92;97282.56;4990915;28;20215;-75
2024/01/02 01:02:01;;;;;;;1.73;0.90;;;;;;;7.21;65.02;97283.59;4991050;28;20233;-75
2024/01/02 01:04:28;;;;;;;2.70;1.08;;;;;;;7.24;65.03;97282.38;4991328;28;20211;-74
2024/01/02 01:06:55;;;;;;;2.20;0.88;;;;;;;7.26;65.13;97272.25;4991705;28;20207;-75
2024/01/02 01:09:22;;;;;;;2.50;0.95;;;;;;;7.13;65.35;97269.50;4991621;28;20211;-75
2024/01/02 01:11:48;;;;;;;2.08;0.98;;;;;;;7.16;65.19;97267.22;4991430;28;20213;-75
2024/01/02 01:14:15;;;;;;;2.17;1.10;;;;;;;7.17;65.43;97263.50;4989479;28;20207;-74
2024/01/02 01:16:42;;;;;;;1.10;0.82;;;;;;;7.11;65.54;97256.25;4991283;28;20199;-74
2024/01/02 01:19:08;;;;;;;2.90;1.27;;;;;;;7.14;65.59;97257.72;4990462;28;20215;-74
2024/01/02 01:21:35;;;;;;;3.90;1.15;;;;;;;7.16;65.55;97248.38;4991973;28;20207;-74
2024/01/02 01:24:03;;;;;;;1.83;0.80;;;;;;;7.12;65.75;97238.25;4989643;28;20203;-74
2024/01/02 01:26:30;;;;;;;1.92;1.08;;;;;;;7.04;65.61;97233.88;4989398;28;20227;-74
2024/01/02 01:28:56;;;;;;;4.10;1.02;;;;;;;7.05;65.94;97238.22;4991206;28;20211;-74
2024/01/02 01:31:23;;;;;;;2.25;0.90;;;;;;;7.14;65.72;97228.94;5000049;28;20964;-75
2024/01/02 01:33:49;;;;;;;2.88;0.90;;;;;;;7.17;65.56;97231.22;4990213;28;20298;-74
2024/01/02 01:36:16;;;;;;;2.40;0.88;;;;;;;7.21;65.49;97224.41;4990042;28;20195;-75
2024/01/02 01:38:42;;;;;;;1.40;0.90;;;;;;;7.17;65.56;97227.69;4991639;28;20306;-74
2024/01/02 01:41:10;;;;;;;2.20;1.10;;;;;;;7.11;65.55;97223.97;4991311;28;20661;-81
2024/01/02 01:43:37;;;;;;;2.22;0.85;;;;;;;7.22;65.63;97214.47;4988310;28;20233;-75
2024/01/02 01:46:04;;;;;;;2.95;0.98;;;;;;;7.21;65.68;97207.44;4987724;28;20199;-75
2024/01/02 01:48:31;;;;;;;1.25;0.80;;;;;;;7.13;65.97;97205.78;4989634;28;20203;-76
2024/01/02 01:50:57;;;;;;;2.15;0.98;;;;;;;6.98;66.21;97208.59;4989937;28;20549;-75
2024/01/02 01:53:24;;;;;;;1.45;0.90;;;;;;;7.02;66.23;97198.25;4989454;28;20568;-75
2024/01/02 01:55:51;;;;;;;2.50;0.90;;;;;;;6.97;66.23;97198.84;4988337;28;20222;-75
2024/01/02 01:58:19;;;;;;;1.50;0.93;;;;;;;6.98;66.30;97202.38;4988830;28;20217;-74
2024/01/02 02:00:46;;;;;;;1.25;1.00;;;;;;;6.94;66.61;97191.19;4990052;28;20278;-75
2024/01/02 02:03:13;;;;;;;1.10;0.80;;;;;;;7.00;66.66;97184.19;4988586;28;20237;-75
2024/01/02 02:05:40;;;;;;;1.88;1.08;;;;;;;7.01;66.67;97180.47;5005880;28;20203;-75
2024/01/02 02:08:06;;;;;;;1.83;0.80;;;;;;;6.99;66.75;97177.13;4989644;28;20296;-75
2024/01/02 02:10:33;;;;;;;1.50;1.05;;;;;;;6.97;66.70;97173.81;4998958;28;20215;-74
2024/01/02 02:12:59;;;;;;;2.38;0.80;;;;;;;6.88;67.16;97169.63;4991277;28;20285;-74
2024/01/02 02:15:27;;;;;;;1.42;0.82;;;;;;;6.93;66.88;97168.00;5006679;28;20290;-75
2024/01/02 02:17:54;;;;;;;1.92;0.80;;;;;;;7.00;66.80;97157.28;4992022;28;20234;-75
2024/01/02 02:20:20;;;;;;;2.85;0.90;;;;;;;7.01;66.54;97153.56;4990850;28;20207;-75
2024/01/02 02:22:50;;;;;;;2.13;0.93;;;;;;;7.00;67.16;97165.34;4993092;28;20218;-75
2024/01/02 02:25:17;;;;;;;1.58;0.88;;;;;;;6.98;67.66;97153.97;4996399;28;20202;-75
2024/01/02 02:27:44;;;;;;;2.33;1.00;;;;;;;6.90;68.39;97146.88;4997056;28;20213;-74
2024/01/02 02:30:11;;;;;;;1.42;0.75;;;;;;;6.82;68.89;97148.94;4999208;28;20231;-75
2024/01/02 02:32:38;;;;;;;1.10;1.00;;;;;;;6.89;68.85;97129.09;4995145;28;20211;-75
2024/01/02 02:35:05;;;;;;;0.80;0.80;;;;;;;6.95;68.64;97125.59;4996211;28;20214;-75
2024/01/02 02:37:32;;;;;;;1.63;0.70;;;;;;;6.89;68.85;97114.81;5012038;28;20206;-75
2024/01/02 02:40:00;;;;;;;1.50;0.85;;;;;;;6.98;68.58;97103.69;4997134;28;20203;-75
2024/01/02 02:42:26;;;;;;;1.10;0.80;;;;;;;6.95;68.73;97089.81;4995979;28;20249;-75
2024/01/02 02:44:53;;;;;;;2.00;0.90;;;;;;;6.95;69.12;97105.94;5029284;28;20207;-75
2024/01/02 02:47:21;;;;;;;1.48;0.98;;;;;;;6.92;69.08;97084.84;4996899;28;20203;-75
2024/01/02 02:49:49;;;;;;;1.25;0.80;;;;;;;6.84;69.72;97080.47;5005000;28;20652;-75
2024/01/02 02:52:16;;;;;;;0.80;0.70;;;;;;;6.86;69.85;97080.25;4996697;28;20214;-75
2024/01/02 02:54:43;;;;;;;1.00;0.70;;;;;;;6.93;69.85;97075.72;4994143;28;20206;-75
2024/01/02 02:57:11;;;;;;;1.08;0.80;;;;;;;6.90;70.34;97078.81;4997671;28;20692;-75
2024/01/02 02:59:37;;;;;;;1.52;0.80;;;;;;;6.93;69.61;97075.72;4995284;28;20290;-75
2024/01/02 03:02:04;;;;;;;2.33;0.60;;;;;;;7.00;69.63;97069.34;4997437;28;20206;-75
2024/01/02 03:04:30;;;;;;;1.10;0.80;;;;;;;7.00;69.91;97060.44;4994093;28;20568;-75
2024/01/02 03:06:57;;;;;;;1.75;0.85;;;;;;;6.97;69.83;97056.28;4997691;28;20210;-75
2024/01/02 03:09:24;;;;;;;1.35;0.80;;;;;;;6.96;69.90;97043.88;4995001;28;20199;-83
2024/01/02 03:11:52;;;;;;;1.30;0.85;;;;;;;6.95;70.18;97041.38;4996441;28;20199;-75
2024/01/02 03:14:20;;;;;;;0.95;0.70;;;;;;;6.95;70.38;97036.84;5009395;28;20207;-74
2024/01/02 03:16:47;;;;;;;1.75;0.90;;;;;;;6.87;70.40;97034.34;4994962;28;20206;-75
2024/01/02 03:19:14;;;;;;;0.77;0.70;;;;;;;6.85;71.04;97012.19;5012643;28;20211;-75
2024/01/02 03:21:43;;;;;;;1.40;0.80;;;;;;;6.79;71.38;97013.03;4995820;28;20205;-75
2024/01/02 03:24:09;;;;;;;1.08;0.80;;;;;;;6.79;71.59;96999.59;4996803;28;20262;-75
2024/01/02 03:26:36;;;;;;;1.45;1.00;;;;;;;6.67;72.00;97010.09;4993145;28;20199;-75
2024/01/02 03:29:03;;;;;;;1.08;0.60;;;;;;;6.69;72.22;97002.66;4989821;28;20298;-75
2024/01/02 03:31:31;;;;;;;0.93;0.75;;;;;;;6.63;72.62;96991.88;4995067;28;20218;-75
2024/01/02 03:33:57;;;;;;;1.33;0.70;;;;;;;6.55;73.45;96978.63;4995788;28;20225;-75
2024/01/02 03:36:24;;;;;;;0.60;0.60;;;;;;;6.42;74.50;96976.75;4993547;28;20253;-75
2024/01/02 03:38:51;;;;;;;0.95;0.65;;;;;;;6.35;74.91;96983.94;4991925;28;20258;-75
2024/01/02 03:41:18;;;;;;;2.00;0.90;;;;;;;6.27;76.04;96968.00;4993571;28;20538;-75
2024/01/02 03:43:45;;;;;;;2.75;0.80;;;;;;;6.21;76.12;96966.94;4994103;28;20219;-75
2024/01/02 03:46:12;;;;;;;2.50;0.80;;;;;;;6.12;76.43;96959.28;4992631;28;20233;-74
2024/01/02 03:48:39;;;;;;;2.15;0.77;;;;;;;6.21;76.51;96963.44;4990628;28;20677;-74
2024/01/02 03:51:06;;;;;;;1.23;0.60;;;;;;;6.15;76.52;96954.34;4991390;28;20231;-74
2024/01/02 03:53:32;;;;;;;1.48;0.60;;;;;;;6.18;77.25;96950.41;4993125;28;20728;-74
2024/01/02 03:55:59;;;;;;;1.15;0.90;;;;;;;6.19;77.48;96941.31;4991437;28;20588;-74
2024/01/02 03:58:27;;;;;;;1.73;0.68;;;;;;;6.17;77.29;96946.09;4993111;28;20200;-74
2024/01/02 04:00:54;;;;;;;1.27;0.70;;;;;;;6.17;77.94;96930.81;4990311;28;20218;-75
2024/01/02 04:03:21;;;;;;;0.80;0.77;;;;;;;6.07;79.14;96915.06;4991697;28;20229;-74
2024/01/02 04:05:49;;;;;;;0.80;0.70;;;;;;;6.04;78.98;96903.88;4990888;28;20214;-74
2024/01/02 04:08:16;;;;;;;1.02;0.70;;;;;;;6.09;79.87;96906.78;4992516;28;20231;-74
2024/01/02 04:10:43;;;;;;;2.58;0.70;;;;;;;6.06;79.73;96904.50;4993279;28;20286;-74
2024/01/02 04:13:10;;;;;;;2.00;0.80;;;;;;;6.06;80.04;96901.81;4992080;28;20564;-74
2024/01/02 04:15:37;;;;;;;1.00;0.80;;;;;;;5.98;80.94;96902.81;4992048;28;20215;-74
2024/01/02 04:18:04;;;;;;;0.95;0.60;;;;;;;5.88;81.58;96880.03;4992179;28;20207;-73
2024/01/02 04:20:30;;;;;;;1.08;0.70;;;;;;;6.03;81.83;96902.22;4992335;28;20297;-75
2024/01/02 04:22:58;;;;;;;1.30;0.80;;;;;;;6.00;82.01;96898.09;4992144;28;20226;-74
2024/01/02 04:25:25;;;;;;;1.40;0.70;;;;;;;6.01;82.40;96880.94;4976097;28;20294;-74
2024/01/02 04:27:54;;;;;;;0.70;0.60;;;;;;;5.99;83.12;96879.50;4992425;28;20217;-73
2024/01/02 04:30:20;;;;;;;0.85;0.60;;;;;;;5.95;82.60;96876.38;4992804;28;20196;-73
2024/01/02 04:32:47;;;;;;;1.33;0.77;;;;;;;5.92;83.58;96875.94;4992556;28;20199;-74
2024/01/02 04:35:14;;;;;;;1.20;0.70;;;;;;;5.91;83.80;96863.56;4990909;28;20219;-73
2024/01/02 04:37:40;;;;;;;0.70;0.60;;;;;;;5.89;84.49;96861.06;4993460;28;20560;-73
2024/01/02 04:40:11;;;;;;;0.60;0.60;;;;;;;5.84;84.68;96851.97;4992810;28;20742;-73
2024/01/02 04:42:37;;;;;;;1.30;0.70;;;;;;;5.82;85.20;96846.78;4992485;28;20204;-73
2024/01/02 04:45:04;;;;;;;0.75;0.60;;;;;;;5.83;84.99;96858.34;4991968;28;20207;-73
2024/01/02 04:47:31;;;;;;;1.20;0.60;;;;;;;5.79;84.91;96824.88;4991857;28;20218;-74
2024/01/02 04:49:57;;;;;;;0.60;0.60;;;;;;;5.78;85.57;96818.69;5026236;28;20322;-74
2024/01/02 04:52:25;;;;;;;0.80;0.60;;;;;;;5.77;85.90;96826.94;5009672;28;20235;-73
2024/01/02 04:54:52;;;;;;;0.70;0.60;;;;;;;5.82;85.83;96811.88;4996352;28;20212;-74
2024/01/02 04:57:20;;;;;;;0.60;0.60;;;;;;;5.84;84.68;96831.31;4994291;28;20387;-73
2024/01/02 04:59:48;;;;;;;0.50;0.50;;;;;;;5.81;85.08;96814.78;4992568;28;20211;-73
2024/01/02 05:02:14;;;;;;;0.82;0.60;;;;;;;5.85;85.13;96803.41;4993060;28;20215;-73
2024/01/02 05:04:41;;;;;;;0.70;0.60;;;;;;;5.85;85.40;96797.22;5024150;28;20226;-74
2024/01/02 05:07:08;;;;;;;0.57;0.57;;;;;;;5.83;85.28;96788.56;4991316;28;20199;-74
2024/01/02 05:09:34;;;;;;;0.60;0.60;;;;;;;5.84;84.86;96801.78;5007762;28;20678;-73
2024/01/02 05:12:01;;;;;;;1.70;0.70;;;;;;;5.78;85.31;96781.09;4992658;28;20198;-73
2024/01/02 05:14:29;;;;;;;1.00;0.70;;;;;;;5.88;85.02;96773.47;4984947;28;20195;-73
2024/01/02 05:16:56;;;;;;;0.90;0.88;;;;;;;5.91;85.08;96778.47;4991690;28;20217;-73
2024/01/02 05:19:22;;;;;;;0.60;0.60;;;;;;;5.85;85.25;96756.97;4992157;28;20218;-73
2024/01/02 05:21:51;;;;;;;0.80;0.68;;;;;;;5.86;85.68;96763.97;4991191;28;20552;-73
2024/01/02 05:24:17;;;;;;;2.45;0.80;;;;;;;5.86;85.84;96762.09;4991321;28;20726;-73
2024/01/02 05:26:44;;;;;;;1.23;0.60;;;;;;;5.89;84.96;96771.63;4990932;28;20282;-74
2024/01/02 05:29:10;;;;;;;0.70;0.70;;;;;;;5.90;85.16;96779.50;5022830;28;20207;-74
2024/01/02 05:31:38;;;;;;;0.70;0.70;;;;;;;5.89;85.04;96777.84;4990030;28;20286;-73
2024/01/02 05:34:05;;;;;;;1.00;0.70;;;;;;;5.85;85.33;96768.50;4982501;28;20573;-74
2024/01/02 05:36:31;;;;;;;0.80;0.80;;;;;;;5.85;85.92;96757.75;4989009;28;20224;-74
2024/01/02 05:38:58;;;;;;;0.93;0.70;;;;;;;5.83;86.10;96767.06;4990734;28;20298;-73
2024/01/02 05:41:24;;;;;;;2.20;0.80;;;;;;;5.87;86.19;96753.00;4990387;28;20663;-73
2024/01/02 05:43:51;;;;;;;0.98;0.70;;;;;;;5.83;85.80;96751.78;4989354;28;20223;-73
2024/01/02 05:46:18;;;;;;;0.70;0.70;;;;;;;5.87;85.78;96742.28;5007253;28;20262;-74
2024/01/02 05:48:46;;;;;;;1.00;0.70;;;;;;;5.96;85.31;96724.97;4982266;28;20222;-73
2024/01/02 05:51:12;;;;;;;1.08;0.70;;;;;;;5.96;85.16;96746.47;4990248;28;20213;-73
2024/01/02 05:53:39;;;;;;;2.03;0.80;;;;;;;6.03;84.77;96715.06;4991441;28;20203;-73
2024/01/02 05:56:05;;;;;;;0.70;0.70;;;;;;;6.03;84.90;96730.34;4992251;28;20213;-72
2024/01/02 05:58:32;;;;;;;0.80;0.80;;;;;;;5.99;85.79;96723.75;4990516;28;20209;-74
2024/01/02 06:00:59;;;;;;;1.10;0.70;;;;;;;5.96;85.34;96711.56;4989453;28;20290;-73
2024/01/02 06:03:25;;;;;;;2.65;0.80;;;;;;;5.97;85.32;96715.06;4988566;28;20233;-73
2024/01/02 06:05:53;;;;;;;1.00;0.90;;;;;;;6.04;85.27;96722.09;4990898;28;20202;-74
2024/01/02 06:08:21;;;;;;;1.27;0.75;;;;;;;6.03;85.06;96724.97;4991671;28;20204;-74
2024/01/02 06:10:47;;;;;;;1.23;0.70;;;;;;;6.10;85.13;96704.34;4991932;28;20242;-74
2024/01/02 06:13:14;;;;;;;1.10;0.70;;;;;;;6.10;85.34;96714.25;4990145;28;20217;-73
2024/01/02 06:15:40;;;;;;;1.35;0.70;;;;;;;6.04;85.89;96705.16;4991937;28;20206;-74
2024/01/02 06:18:07;;;;;;;1.20;0.70;;;;;;;6.06;85.92;96701.22;4991861;28;20285;-74
2024/01/02 06:20:33;;;;;;;1.25;0.60;;;;;;;6.07;86.06;96689.47;4991758;28;20197;-74
2024/01/02 06:23:02;;;;;;;1.38;0.70;;;;;;;6.05;85.22;96686.16;4989019;28;20211;-74
2024/01/02 06:25:28;;;;;;;1.15;0.70;;;;;;;6.13;85.62;96705.78;4978055;28;20310;-74
2024/01/02 06:27:56;;;;;;;0.80;0.80;;;;;;;6.14;85.64;96694.00;4973593;28;20245;-74
2024/01/02 06:30:23;;;;;;;0.70;0.70;;;;;;;6.15;86.10;96687.59;4988962;28;20695;-74
2024/01/02 06:32:50;;;;;;;1.52;0.80;;;;;;;6.18;85.27;96690.66;4973827;28;20211;-73
2024/01/02 06:35:16;;;;;;;0.90;0.70;;;;;;;6.20;85.73;96679.72;4987817;28;20203;-74
2024/01/02 06:37:43;;;;;;;0.60;0.60;;;;;;;6.24;85.20;96675.59;4989294;28;20211;-74
2024/01/02 06:40:11;;;;;;;1.05;0.60;;;;;;;6.24;85.43;96660.28;4988718;28;20222;-73
2024/01/02 06:42:38;;;;;;;0.80;0.80;;;;;;;6.30;84.43;96683.66;4990244;28;20207;-73
2024/01/02 06:45:05;;;;;;;1.50;0.60;;;;;;;6.32;85.01;96656.56;4990062;28;20617;-73
2024/01/02 06:47:33;;;;;;;0.70;0.70;;;;;;;6.35;85.30;96669.59;4991477;28;20243;-74
2024/01/02 06:49:59;;;;;;;0.85;0.70;;;;;;;6.36;85.80;96655.13;4992087;28;20655;-73
2024/01/02 06:52:26;;;;;;;0.77;0.70;;;;;;;6.43;85.27;96681.97;4989221;28;20211;-73
2024/01/02 06:54:52;;;;;;;1.35;0.70;;;;;;;6.49;83.53;96663.16;4988899;28;20219;-73
2024/01/02 06:57:20;;;;;;;0.95;0.73;;;;;;;6.53;84.30;96661.69;4989023;28;20298;-73
2024/01/02 06:59:47;;;;;;;2.13;0.85;;;;;;;6.53;85.04;96663.53;4980716;28;20205;-73
2024/01/02 07:02:13;;;;;;;1.13;0.57;;;;;;;6.53;84.70;96656.31;4991483;28;20261;-73
2024/01/02 07:04:40;;;;;;;0.80;0.80;;;;;;;6.57;85.22;96662.09;4989648;28;20230;-72
2024/01/02 07:07:06;;;;;;;1.02;0.77;;;;;;;6.60;83.96;96638.31;4989150;28;20205;-73
2024/01/02 07:09:34;;;;;;;0.60;0.60;;;;;;;6.63;84.77;96647.81;4989980;28;20294;-73
2024/01/02 07:12:00;;;;;;;0.60;0.60;;;;;;;6.65;84.41;96653.81;4993064;28;20206;-74
2024/01/02 07:14:28;;;;;;;1.08;0.60;;;;;;;6.71;84.25;96650.28;4990281;28;20203;-74
2024/01/02 07:16:55;;;;;;;0.70;0.60;;;;;;;6.71;84.02;96653.78;4992985;28;20199;-73
2024/01/02 07:19:21;;;;;;;0.90;0.60;;;;;;;6.71;84.53;96643.03;4992067;28;20203;-73
2024/01/02 07:21:48;;;;;;;2.22;0.70;;;;;;;6.85;83.28;96662.63;4993059;28;20207;-73
2024/01/02 07:24:15;;;;;;;0.73;0.55;;;;;;;6.90;82.81;96648.53;4991162;28;20230;-73
2024/01/02 07:26:42;;;;;;;0.82;0.73;;;;;;;6.92;83.12;96633.00;4978200;28;20581;-72
2024/01/02 07:29:09;;;;;;;1.00;0.80;;;;;;;6.92;82.66;96622.25;4988449;28;20293;-71
2024/01/02 07:31:37;;;;;;;0.60;0.60;;;;;;;7.00;82.89;96633.59;4990522;28;20209;-81
2024/01/02 07:34:03;;;;;;;1.05;0.70;;;;;;;7.10;81.97;96654.66;4988373;28;20298;-72
2024/01/02 07:36:30;;;;;;;0.75;0.60;;;;;;;7.17;81.26;96639.28;4993423;28;20216;-72
2024/01/02 07:38:57;;;;;;;0.95;0.68;;;;;;;7.21;81.29;96656.66;4991052;28;20211;-72
2024/01/02 07:41:23;;;;;;;0.60;0.60;;;;;;;7.25;80.95;96648.97;4987165;28;20869;-72
2024/01/02 07:43:50;;;;;;;0.88;0.73;;;;;;;7.28;81.01;96644.00;4990118;28;20215;-73
2024/01/02 07:46:17;;;;;;;0.60;0.50;;;;;;;7.41;80.41;96657.38;4989900;28;21077;-72
2024/01/02 07:48:45;;;;;;;0.85;0.55;;;;;;;7.41;80.53;96665.47;4988495;28;20196;-72
2024/01/02 07:51:11;;;;;;;0.65;0.65;;;;;;;7.39;80.65;96651.41;4990926;28;20205;-72
2024/01/02 07:53:38;;;;;;;0.85;0.70;;;;;;;7.46;80.75;96666.69;4993011;28;20321;-73
2024/01/02 07:56:05;;;;;;;0.80;0.60;;;;;;;7.54;80.55;96663.72;4987547;28;20195;-74
2024/01/02 07:58:33;;;;;;;0.90;0.60;;;;;;;7.59;80.02;96666.59;4990597;28;20207;-74
2024/01/02 08:00:59;;;;;;;0.57;0.57;;;;;;;7.67;79.82;96667.16;4973351;28;20207;-74
2024/01/02 08:03:26;;;;;;;0.60;0.52;;;;;;;7.68;79.74;96666.09;5006539;28;20298;-74
2024/01/02 08:05:54;;;;;;;0.60;0.60;;;;;;;7.71;80.25;96656.78;4988833;28;20215;-74
2024/01/02 08:08:21;;;;;;;0.52;0.50;;;;;;;7.80;80.22;96652.75;4991564;28;20203;-74
2024/01/02 08:10:47;;;;;;;0.50;0.50;;;;;;;7.80;79.85;96657.34;4991650;28;20207;-74
2024/01/02 08:13:14;;;;;;;0.80;0.80;;;;;;;7.87;79.70;96653.53;4985110;28;20286;-73
2024/01/02 08:15:40;;;;;;;1.00;0.60;;;;;;;7.95;79.63;96647.06;4988294;28;20283;-72
2024/01/02 08:18:07;;;;;;;0.60;0.50;;;;;;;7.98;79.19;96650.13;4990008;28;20203;-73
2024/01/02 08:20:34;;;;;;;0.60;0.40;;;;;;;8.00;79.32;96636.44;4988891;28;20267;-73
2024/01/02 08:23:02;;;;;;;0.80;0.60;;;;;;;7.99;79.62;96662.56;4990743;28;20278;-73
2024/01/02 08:25:28;;;;;;;0.60;0.50;;;;;;;8.03;79.16;96677.25;4988870;28;20315;-73
2024/01/02 08:27:55;;;;;;;1.63;0.50;;;;;;;8.09;79.20;96683.63;4988305;28;20641;-72
2024/01/02 08:30:21;;;;;;;0.50;0.40;;;;;;;8.09;78.81;96678.25;4991077;28;20199;-74
2024/01/02 08:32:48;;;;;;;0.60;0.40;;;;;;;8.13;79.17;96674.03;4991764;28;20203;-73
2024/01/02 08:35:15;;;;;;;0.60;0.50;;;;;;;8.24;78.57;96675.19;4990584;28;20301;-72
2024/01/02 08:37:42;;;;;;;0.60;0.47;;;;;;;8.19;78.06;96672.31;5017444;28;20221;-79
2024/01/02 08:40:12;;;;;;;1.30;0.60;;;;;;;8.19;78.65;96667.75;4989901;28;20215;-73
2024/01/02 08:42:39;;;;;;;0.50;0.40;;;;;;;8.26;78.08;96662.31;5006954;28;20217;-73
2024/01/02 08:45:06;;;;;;;1.00;0.45;;;;;;;8.28;77.86;96660.22;4991352;28;20305;-73
2024/01/02 08:47:33;;;;;;;0.70;0.50;;;;;;;8.31;77.83;96657.09;4992158;28;20196;-73
2024/01/02 08:50:00;;;;;;;0.50;0.50;;;;;;;8.34;77.52;96672.84;4992097;28;20201;-72
2024/01/02 08:52:26;;;;;;;0.52;0.45;;;;;;;8.35;77.51;96661.03;4986245;28;20290;-73
2024/01/02 08:54:53;;;;;;;0.50;0.43;;;;;;;8.38;77.41;96664.13;4992277;28;20199;-74
2024/01/02 08:57:21;;;;;;;0.60;0.40;;;;;;;8.41;77.53;96668.22;4994061;28;20337;-74
2024/01/02 08:59:47;;;;;;;0.50;0.50;;;;;;;8.45;77.65;96674.00;5000055;28;20207;-75
2024/01/02 09:02:14;;;;;;;0.50;0.50;;;;;;;8.42;77.44;96661.78;4994271;28;20199;-75
2024/01/02 09:04:42;;;;;;;0.50;0.50;;;;;;;8.46;77.34;96673.75;5004052;28;20287;-73
2024/01/02 09:07:09;;;;;;;0.60;0.50;;;;;;;8.37;77.85;96670.56;5005128;28;20217;-73
2024/01/02 09:09:36;;;;;;;0.60;0.50;;;;;;;8.46;77.13;96662.16;4991434;28;20199;-73
2024/01/02 09:12:02;;;;;;;0.93;0.50;;;;;;;8.46;77.35;96687.25;4989412;28;20226;-75
2024/01/02 09:14:30;;;;;;;1.60;0.70;;;;;;;8.51;77.54;96681.19;5022918;28;20203;-70
2024/01/02 09:16:57;;;;;;;0.60;0.60;;;;;;;8.50;77.21;96695.72;4962237;28;20288;-74
2024/01/02 09:19:23;;;;;;;0.65;0.55;;;;;;;8.63;76.67;96691.03;5000869;28;20566;-72
2024/01/02 09:21:50;;;;;;;0.50;0.50;;;;;;;8.58;76.94;96704.34;4978278;28;20687;-73
2024/01/02 09:24:18;;;;;;;0.82;0.60;;;;;;;8.66;76.59;96687.06;4988993;28;20203;-72
2024/01/02 09:26:47;;;;;;;0.70;0.60;;;;;;;8.63;76.99;96692.91;4989083;28;20195;-72
2024/01/02 09:29:14;;;;;;;0.75;0.50;;;;;;;8.67;76.44;96688.72;4987463;28;20217;-73
2024/01/02 09:31:42;;;;;;;0.50;0.50;;;;;;;8.69;76.25;96690.13;4983692;28;20203;-74
2024/01/02 09:34:08;;;;;;;0.50;0.40;;;;;;;8.71;76.30;96693.44;4985590;28;20215;-73
2024/01/02 09:36:35;;;;;;;0.60;0.50;;;;;;;8.72;76.51;96683.47;4985823;28;20203;-73
2024/01/02 09:39:02;;;;;;;0.75;0.52;;;;;;;8.71;76.40;96693.44;4981583;28;20215;-73
2024/01/02 09:41:39;;;;;;;0.52;0.50;;;;;;;8.77;76.03;96696.28;4984732;28;20214;-73
2024/01/02 09:44:17;;;;;;;0.95;0.40;;;;;;;8.86;75.89;96694.94;4984982;28;20243;-73
2024/01/02 09:46:55;;;;;;;0.60;0.60;;;;;;;8.85;75.83;96688.69;4987771;28;20205;-73
2024/01/02 09:49:27;;;;;;;0.50;0.50;;;;;;;8.88;75.69;96690.13;4985553;28;20611;-73
2024/01/02 09:52:07;;;;;;;0.60;0.50;;;;;;;8.91;75.92;96697.78;4979736;28;20203;-74
2024/01/02 09:54:42;;;;;;;0.77;0.55;;;;;;;8.82;75.91;96683.75;4996447;28;20282;-75
2024/01/02 09:57:15;;;;;;;0.50;0.40;;;;;;;8.90;76.01;96694.25;4984355;28;20199;-74
2024/01/02 09:59:52;;;;;;;0.50;0.50;;;;;;;8.97;75.84;96708.50;4984112;28;20279;-75
2024/01/02 10:02:31;;;;;;;0.70;0.45;;;;;;;8.88;76.30;96692.81;4993765;28;20212;-74
2024/01/02 10:05:08;;;;;;;0.60;0.50;;;;;;;8.96;76.17;96687.97;4981390;28;20254;-74
2024/01/02 10:08:02;;;;;;;0.60;0.50;;;;;;;8.96;75.82;96695.22;4966639;28;20206;-75
2024/01/02 10:10:35;;;;;;;0.60;0.50;;;;;;;9.03;75.74;96693.28;4982026;28;20195;-74
2024/01/02 10:13:23;;;;;;;1.38;0.57;;;;;;;8.99;75.75;96692.09;4996846;28;20294;-74
2024/01/02 10:15:56;;;;;;;0.90;0.60;;;;;;;9.08;75.75;96696.16;4983531;28;20238;-74
2024/01/02 10:18:35;;;;;;;0.60;0.60;;;;;;;9.15;75.06;96696.03;4987138;28;20199;-72
2024/01/02 10:21:08;;;;;;;0.95;0.52;;;;;;;9.09;75.22;96700.50;4988665;28;20230;-72
2024/01/02 10:23:41;;;;;;;0.70;0.55;;;;;;;9.20;75.45;96691.63;4994967;28;20673;-73
2024/01/02 10:26:09;;;;;;;0.50;0.40;;;;;;;9.21;74.72;96677.06;5000702;28;20330;-73
2024/01/02 10:28:36;;;;;;;0.50;0.50;;;;;;;9.21;74.86;96677.06;4986266;28;20218;-74
2024/01/02 10:31:05;;;;;;;0.60;0.50;;;;;;;9.26;74.78;96669.13;4983737;28;20258;-73
2024/01/02 10:33:38;;;;;;;0.50;0.40;;;;;;;9.27;74.39;96667.25;4987564;28;20564;-73
2024/01/02 10:36:07;;;;;;;0.75;0.50;;;;;;;9.29;74.73;96678.63;4987318;28;20199;-73
2024/01/02 10:38:42;;;;;;;0.50;0.50;;;;;;;9.29;74.50;96665.97;4984477;28;20203;-73
2024/01/02 10:41:27;;;;;;;0.88;0.63;;;;;;;9.31;74.47;96677.38;4986184;28;20293;-73
2024/01/02 10:44:00;;;;;;;0.50;0.50;;;;;;;9.33;74.70;96669.03;4983576;28;20660;-74
2024/01/02 10:46:35;;;;;;;0.60;0.50;;;;;;;9.32;74.34;96673.63;4983514;28;20230;-73
2024/01/02 10:49:08;;;;;;;0.50;0.40;;;;;;;9.35;74.58;96673.16;4966521;28;20213;-73
2024/01/02 10:51:38;;;;;;;0.90;0.60;;;;;;;9.41;74.51;96660.63;4983960;28;20207;-73
2024/01/02 10:54:10;;;;;;;0.70;0.50;;;;;;;9.41;74.38;96645.25;4996605;28;21127;-73
2024/01/02 10:56:39;;;;;;;0.60;0.60;;;;;;;9.50;74.14;96647.59;4978299;28;20315;-75
2024/01/02 10:59:17;;;;;;;0.60;0.50;;;;;;;9.50;74.06;96636.81;4982102;28;20217;-74
2024/01/02 11:01:47;;;;;;;0.60;0.50;;;;;;;9.48;74.18;96652.41;4989447;28;20682;-74
2024/01/02 11:04:21;;;;;;;1.08;0.50;;;;;;;9.53;74.51;96622.84;4988205;28;20211;-81
2024/01/02 11:06:55;;;;;;;0.70;0.50;;;;;;;9.61;73.61;96644.94;4992584;28;20281;-75
2024/01/02 11:09:26;;;;;;;0.60;0.55;;;;;;;9.67;73.66;96627.00;4991095;28;20666;-74
2024/01/02 11:11:54;;;;;;;0.80;0.60;;;;;;;9.72;73.72;96629.84;4989721;28;20217;-74
2024/01/02 11:14:22;;;;;;;0.50;0.40;;;;;;;9.71;73.37;96628.19;4988958;28;20203;-74
2024/01/02 11:16:51;;;;;;;0.50;0.50;;;;;;;9.63;73.41;96623.13;4989128;28;20210;-74
2024/01/02 11:19:22;;;;;;;0.50;0.45;;;;;;;9.72;72.89;96621.72;4989297;28;20690;-73
2024/01/02 11:21:55;;;;;;;0.60;0.50;;;;;;;9.71;72.83;96596.59;4988999;28;20758;-74
2024/01/02 11:24:23;;;;;;;0.47;0.40;;;;;;;9.71;72.72;96614.69;4990962;28;20286;-74
2024/01/02 11:26:51;;;;;;;0.93;0.50;;;;;;;9.74;72.65;96593.44;5005674;28;20750;-74
2024/01/02 11:29:20;;;;;;;0.60;0.50;;;;;;;9.81;72.33;96577.09;4990411;28;20207;-74
2024/01/02 11:31:49;;;;;;;0.50;0.50;;;;;;;9.89;71.86;96582.16;4982605;28;20195;-74
2024/01/02 11:34:28;;;;;;;0.80;0.50;;;;;;;9.84;72.07;96582.03;4988018;28;20236;-75
2024/01/02 11:37:05;;;;;;;0.60;0.60;;;;;;;9.91;71.17;96585.44;5021861;28;20618;-75
2024/01/02 11:39:37;;;;;;;0.50;0.40;;;;;;;9.93;71.38;96577.94;4989028;28;20203;-77
2024/01/02 11:42:08;;;;;;;1.38;0.47;;;;;;;9.95;71.09;96562.31;4987130;28;20207;-74
2024/01/02 11:44:41;;;;;;;0.65;0.50;;;;;;;9.92;71.21;96565.47;4984151;28;20223;-74